Wichita, KS (67230)

9:55 PM CST on February 13, 2016 (GMT -0600)
White Tail | | Change Station
CLOSE
Current Station
Personal Weather Station
Location: Wichita, KS
Elevation: 1391 ft
Nearby Weather Stations

Elev 1391 ft 37.70 °N, 97.20 °W | Updated 2 seconds ago

Mostly Cloudy
Mostly Cloudy
30.9 °F
Feels Like 31 °F
N
1.3
Wind Variable Wind from SE
Gusts 2.5 mph

Today
High -- | Low -- °F
--% Chance of Precip.
Yesterday
High -- | Low -- °F
Precip. -- in
Pressure 30.17 in
Visibility 10.0 miles
Clouds Clear
Windchill 31 °F
Dew Point 10 °F
Humidity 40%
Rainfall in
Snow Depth Not available.
7:21 AM 6:05 PM
Waxing Crescent, 37% visible
METAR KAAO 140254Z AUTO 09008KT 10SM CLR M01/M12 A3012 RMK AO2 SLP216 T10061122 58011
Pressure 30.17 in
Visibility 10.0 miles
Clouds Clear
Windchill 31 °F
Dew Point 10 °F
Humidity 40%
Rainfall in
Snow Depth Not available.
7:21 AM 6:05 PM
Waxing Crescent, 37% visible
METAR KAAO 140254Z AUTO 09008KT 10SM CLR M01/M12 A3012 RMK AO2 SLP216 T10061122 58011

10-Day Weather Forecast

Almanac

Astronomy

Feb. 13, 2016 Rise Set
Actual Time
Civil Twilight
Nautical Twilight
Astronomical Twilight
Moon
Length of Visible Light
Length of Day
Tomorrow will be .
, % of the Moon is Illuminated

Today's Extremes

State Highs State Lows

Community

WunderPhotos

Upload Photos

1,892,738 photos uploaded!

WunderBlog® & News

Nearby

Air Quality

  Air Quality AQ Index Pollutant
Not available.

Snow Depth

Station Depth Elevation

Earthquake Activity

City Distance Mag. Time & Date
Minimum magnitude displayed is 2.5.

Coastal Water Temperatures

Place Temperature

Stations

Nearby Weather Stations

Station Location Temp. Windchill Dew Point Humidity Wind Precip. Elev Updated Type
                   

Watches & Warnings

There are currently no watches in effect.